createdAt,value
2023-01-17T02:12:03.150Z,98259.38
2023-01-17T02:14:29.760Z,98266.41
2023-01-17T02:17:20.602Z,98259.00
2023-01-17T02:20:25.013Z,98252.47
2023-01-17T02:23:28.768Z,98245.75
2023-01-17T02:26:10.528Z,98248.28
2023-01-17T02:28:56.093Z,98242.38
2023-01-17T02:31:31.957Z,98230.66
2023-01-17T02:34:34.023Z,98231.69
2023-01-17T02:37:23.854Z,98229.13
2023-01-17T02:40:00.001Z,98216.50
2023-01-17T02:42:35.188Z,98212.28
2023-01-17T02:45:03.027Z,98208.88
2023-01-17T02:47:31.962Z,98209.72
2023-01-17T02:50:07.426Z,98201.28
2023-01-17T02:52:55.055Z,98202.13
2023-01-17T02:55:49.065Z,98201.38
2023-01-17T02:58:46.409Z,98209.91
2023-01-17T03:01:22.220Z,98211.50
2023-01-17T03:04:03.886Z,98196.22
2023-01-17T03:07:11.846Z,98189.53
2023-01-17T03:09:40.693Z,98194.59
2023-01-17T03:12:09.829Z,98191.28
2023-01-17T03:14:36.486Z,98190.53
2023-01-17T03:17:03.160Z,98186.31
2023-01-17T03:19:29.895Z,98185.53
2023-01-17T03:21:56.488Z,98187.25
2023-01-17T03:24:23.320Z,98174.66
2023-01-17T03:26:49.842Z,98181.41
2023-01-17T03:29:16.644Z,98177.28
2023-01-17T03:31:43.189Z,98168.84
2023-01-17T03:34:09.786Z,98179.06
2023-01-17T03:36:36.327Z,98169.66
2023-01-17T03:39:03.172Z,98177.41
2023-01-17T03:41:29.741Z,98165.63
2023-01-17T03:43:56.318Z,98166.50
2023-01-17T03:46:25.383Z,98162.25
2023-01-17T03:48:52.426Z,98157.13
2023-01-17T03:51:19.175Z,98160.56
2023-01-17T03:53:49.985Z,98156.28
2023-01-17T03:56:16.651Z,98155.50
2023-01-17T03:58:43.294Z,98162.34
2023-01-17T04:01:10.349Z,98170.75
2023-01-17T04:03:36.993Z,98155.63
2023-01-17T04:06:03.829Z,98169.19
2023-01-17T04:08:30.603Z,98159.81
2023-01-17T04:10:57.171Z,98154.75
2023-01-17T04:13:23.780Z,98165.66
2023-01-17T04:15:51.200Z,98161.44
2023-01-17T04:18:19.476Z,98151.38
2023-01-17T04:20:46.205Z,98152.13
2023-01-17T04:23:12.855Z,98157.28
2023-01-17T04:25:39.739Z,98158.06
2023-01-17T04:28:06.385Z,98158.97
2023-01-17T04:30:33.672Z,98153.09
2023-01-17T04:33:00.220Z,98160.75
2023-01-17T04:35:26.867Z,98158.16
2023-01-17T04:37:53.371Z,98165.72
2023-01-17T04:40:20.041Z,98157.38
2023-01-17T04:42:47.294Z,98160.78
2023-01-17T04:45:14.967Z,98155.78
2023-01-17T04:47:41.572Z,98162.63
2023-01-17T04:50:09.551Z,98153.34
2023-01-17T04:52:36.111Z,98160.00
2023-01-17T04:55:02.650Z,98158.38
2023-01-17T04:57:29.212Z,98153.34
2023-01-17T04:59:55.783Z,98155.91
2023-01-17T05:02:22.584Z,98151.66
2023-01-17T05:04:49.177Z,98146.59
2023-01-17T05:07:15.773Z,98144.91
2023-01-17T05:09:43.817Z,98150.81
2023-01-17T05:12:10.511Z,98139.81
2023-01-17T05:14:37.077Z,98140.69
2023-01-17T05:17:03.607Z,98143.19
2023-01-17T05:19:30.309Z,98138.22
2023-01-17T05:22:03.706Z,98143.38
2023-01-17T05:24:31.508Z,98150.91
2023-01-17T05:27:03.212Z,98151.81
2023-01-17T05:29:30.606Z,98145.91
2023-01-17T05:31:57.378Z,98139.94
2023-01-17T05:34:24.101Z,98135.88
2023-01-17T05:36:50.683Z,98144.31
2023-01-17T05:39:17.263Z,98152.84
2023-01-17T05:41:43.895Z,98143.47
2023-01-17T05:44:10.616Z,98142.63
2023-01-17T05:46:37.421Z,98135.88
2023-01-17T05:49:04.112Z,98146.09
2023-01-17T05:51:30.648Z,98166.34
2023-01-17T05:53:57.204Z,98157.16
2023-01-17T05:56:23.737Z,98166.44
2023-01-17T05:58:50.259Z,98163.84
2023-01-17T06:01:17.739Z,98172.34
2023-01-17T08:38:05.164Z,98139.16
2023-01-17T08:40:32.745Z,98137.53
2023-01-17T08:43:01.214Z,98132.56
2023-01-17T08:45:28.957Z,98136.06
2023-01-17T08:47:58.137Z,98127.69
2023-01-17T08:50:26.091Z,98129.38
2023-01-17T08:53:00.928Z,98125.22
2023-01-17T08:55:28.047Z,98123.56
2023-01-17T08:57:55.953Z,98110.16
2023-01-17T09:00:22.935Z,98113.59
2023-01-17T09:02:52.115Z,98113.56
2023-01-17T09:05:18.667Z,98100.16
2023-01-17T09:07:45.586Z,98097.47
2023-01-17T09:10:12.496Z,98099.31
2023-01-17T09:12:40.303Z,98101.91
2023-01-17T09:15:07.418Z,98082.53
2023-01-17T09:17:33.952Z,98079.16
2023-01-17T09:20:00.988Z,98076.69
2023-01-17T09:22:27.581Z,98072.41
2023-01-17T09:24:54.076Z,98066.56
2023-01-17T09:27:20.955Z,98060.59
2023-01-17T09:29:47.637Z,98065.78
2023-01-17T09:32:17.215Z,98063.22
2023-01-17T09:34:44.332Z,98059.19
2023-01-17T09:37:10.975Z,98051.59
2023-01-17T09:39:37.514Z,98044.06
2023-01-17T09:42:16.032Z,98043.31
2023-01-17T09:44:45.058Z,98045.03
2023-01-17T09:47:19.985Z,98042.63
2023-01-17T09:49:47.450Z,98043.53
2023-01-17T09:52:17.923Z,98038.47
2023-01-17T09:54:47.570Z,98026.56
2023-01-17T09:57:58.763Z,98042.81
2023-01-17T10:00:37.507Z,98039.44
2023-01-17T10:03:25.137Z,98037.72
2023-01-17T10:06:30.136Z,98036.09
2023-01-17T10:09:22.657Z,98027.75
2023-01-17T10:12:13.692Z,98037.13
2023-01-17T10:14:58.158Z,98038.88
2023-01-17T10:17:50.524Z,98046.53
2023-01-17T10:20:17.062Z,98049.03
2023-01-17T10:23:11.340Z,98038.88
2023-01-17T10:25:43.701Z,98043.06
2023-01-17T10:28:20.262Z,98037.91
2023-01-17T10:30:58.491Z,98036.22
2023-01-17T10:33:29.630Z,98031.94
2023-01-17T10:36:03.839Z,98025.09
2023-01-17T10:38:33.954Z,98026.06
2023-01-17T10:41:15.677Z,98016.75
2023-01-17T10:44:07.617Z,98003.09
2023-01-17T10:46:55.582Z,98010.75
2023-01-17T10:49:26.998Z,98018.34
2023-01-17T10:52:21.367Z,98014.09
2023-01-17T10:55:25.911Z,98007.31
2023-01-17T10:57:53.649Z,98014.94
2023-01-17T11:01:07.234Z,98013.19
2023-01-17T11:03:34.729Z,97993.59
2023-01-17T11:06:19.402Z,97998.75
2023-01-17T11:08:50.789Z,97992.81
2023-01-17T11:11:18.151Z,97997.03
2023-01-17T11:13:47.749Z,97991.06
2023-01-17T11:16:27.527Z,97982.59
2023-01-17T11:19:19.430Z,97981.69
2023-01-17T11:22:07.344Z,97980.84
2023-01-17T11:24:41.789Z,97971.47
2023-01-17T11:27:33.710Z,97966.38
2023-01-17T11:30:05.471Z,97966.38
2023-01-17T11:32:33.565Z,97965.56
2023-01-17T11:35:08.397Z,97965.59
2023-01-17T11:37:36.197Z,97968.13
2023-01-17T11:40:09.805Z,97967.28
2023-01-17T11:42:38.331Z,97965.66
2023-01-17T11:45:32.250Z,97958.84
2023-01-17T11:48:08.152Z,97969.88
2023-01-17T11:50:36.103Z,97962.25
2023-01-17T11:53:21.397Z,97952.94
2023-01-17T11:55:55.934Z,97962.34
2023-01-17T11:58:24.120Z,97959.81
2023-01-17T12:01:02.217Z,97957.31
2023-01-17T12:03:45.552Z,97958.16
2023-01-17T12:22:41.221Z,97967.84
2023-01-17T12:25:14.935Z,97973.84
2023-01-17T12:28:06.956Z,97968.00
2023-01-17T12:30:33.401Z,97976.53
2023-01-17T12:33:09.140Z,97969.84
2023-01-17T12:35:50.632Z,97963.91
2023-01-17T12:38:32.504Z,97968.13
2023-01-17T12:41:19.054Z,97964.81
2023-01-17T12:43:45.896Z,97972.41
2023-01-17T12:46:13.181Z,97962.34
2023-01-17T12:48:39.812Z,97953.03
2023-01-17T12:51:27.726Z,97958.13
2023-01-17T12:54:15.688Z,97956.50
2023-01-17T12:56:54.091Z,97951.41
2023-01-17T12:59:37.759Z,97953.91
2023-01-17T13:02:18.960Z,97948.84
2023-01-17T13:05:06.620Z,97946.28
2023-01-17T13:07:45.829Z,97944.53
2023-01-17T13:10:32.105Z,97932.66
2023-01-17T13:13:00.551Z,97941.97
2023-01-17T13:15:37.500Z,97937.72
2023-01-17T13:18:13.561Z,97939.41
2023-01-17T13:21:04.772Z,97941.06
2023-01-17T13:23:59.620Z,97932.59
2023-01-17T13:26:41.435Z,97936.03
2023-01-17T13:29:26.654Z,97933.44
2023-01-17T13:32:36.183Z,97929.16
2023-01-17T13:35:41.963Z,97935.06
2023-01-17T13:38:54.811Z,97940.09
2023-01-17T13:41:56.540Z,97940.88
2023-01-17T13:44:27.998Z,97932.47
2023-01-17T13:47:17.160Z,97925.72
2023-01-17T13:49:47.676Z,97927.38
2023-01-17T13:52:20.031Z,97930.72
2023-01-17T13:54:47.672Z,97932.47
2023-01-17T13:57:29.222Z,97929.88
2023-01-17T13:59:57.540Z,97932.41
2023-01-17T14:02:36.216Z,97928.97
2023-01-17T14:05:21.216Z,97933.28
2023-01-17T14:08:00.248Z,97931.59
2023-01-17T14:10:32.514Z,97931.56
2023-01-17T14:12:59.819Z,97929.88
2023-01-17T14:27:19.348Z,97941.94
2023-01-17T14:29:50.729Z,97936.81
2023-01-17T14:32:30.229Z,97925.81
2023-01-17T14:34:57.384Z,97920.78
2023-01-17T14:37:32.947Z,97933.53
2023-01-17T14:40:00.752Z,97919.84
2023-01-17T14:42:30.546Z,97937.72
2023-01-17T14:45:05.712Z,97930.16
2023-01-17T14:47:36.094Z,97925.91
2023-01-17T14:50:24.675Z,97938.63
2023-01-17T14:53:12.830Z,97929.31
2023-01-17T14:55:48.303Z,97925.94
2023-01-17T14:58:23.529Z,97929.31
2023-01-17T15:00:53.463Z,97917.41
2023-01-17T15:03:20.236Z,97923.44
2023-01-17T15:05:50.775Z,97914.06
2023-01-17T15:08:20.871Z,97902.16
2023-01-17T15:11:03.030Z,97925.13
2023-01-17T15:13:44.426Z,97921.69
2023-01-17T15:16:27.846Z,97933.63
2023-01-17T15:18:55.664Z,97939.56
2023-01-17T15:21:26.484Z,97933.63
2023-01-17T15:23:54.201Z,97937.03
2023-01-17T15:26:24.374Z,97940.41
2023-01-17T15:28:53.440Z,97933.56
2023-01-17T15:31:37.779Z,97933.66
2023-01-17T15:34:07.909Z,97940.47
2023-01-17T15:36:35.220Z,97939.63
2023-01-17T15:39:06.199Z,97932.91
2023-01-17T15:41:35.990Z,97929.50
2023-01-17T15:44:03.324Z,97928.66
2023-01-17T15:46:34.041Z,97925.22
2023-01-17T15:49:17.657Z,97932.97
2023-01-17T15:51:50.545Z,97930.38
2023-01-17T15:54:29.233Z,97937.19
2023-01-17T15:57:14.285Z,97938.81
2023-01-17T15:59:48.916Z,97954.19
2023-01-17T16:02:36.978Z,97957.56
2023-01-17T16:05:24.085Z,97960.16
2023-01-17T16:08:03.259Z,97955.19
2023-01-17T16:10:38.004Z,97947.41
2023-01-17T16:13:10.117Z,97950.09
2023-01-17T16:15:38.168Z,97964.50
2023-01-17T16:18:20.972Z,97961.09
2023-01-17T16:20:59.205Z,97958.59
2023-01-17T16:23:26.201Z,97958.72
2023-01-17T16:25:53.973Z,97968.91
2023-01-17T16:28:21.016Z,97972.31
2023-01-17T16:30:48.950Z,97979.94
2023-01-17T16:33:15.927Z,97985.91
2023-01-17T16:35:43.023Z,97984.16
2023-01-17T16:38:15.703Z,97987.63
2023-01-17T16:40:44.543Z,97989.31
2023-01-17T16:43:12.209Z,97979.97
2023-01-17T16:45:52.058Z,97968.06
2023-01-17T16:48:19.607Z,97964.69
2023-01-17T16:50:50.625Z,97965.53
2023-01-17T16:53:24.714Z,97989.31
2023-01-17T16:55:57.087Z,97985.88
2023-01-17T16:58:23.647Z,97990.06
2023-01-17T17:00:50.360Z,97999.28
2023-01-17T17:03:19.161Z,98000.16
2023-01-17T17:05:54.068Z,98009.50
2023-01-17T17:08:20.612Z,98011.25
2023-01-17T17:10:47.152Z,98015.47
2023-01-17T17:13:13.696Z,98019.66
2023-01-17T17:15:46.488Z,98014.59
2023-01-17T17:18:15.387Z,98016.22
2023-01-17T17:20:42.944Z,98006.84
2023-01-17T17:23:12.742Z,98013.63
2023-01-17T17:25:40.061Z,98005.84
2023-01-17T17:28:06.730Z,98021.19
2023-01-17T17:30:34.510Z,98021.19
2023-01-17T17:33:04.729Z,98008.50
2023-01-17T17:35:34.274Z,98016.13
2023-01-17T17:38:00.787Z,98021.31
2023-01-17T17:40:27.367Z,98019.63
2023-01-17T17:42:53.869Z,98020.50
2023-01-17T17:45:20.403Z,98017.97
2023-01-17T17:47:47.038Z,98018.88
2023-01-17T17:50:13.577Z,98021.41
2023-01-17T17:52:40.836Z,98029.09
2023-01-17T17:55:07.767Z,98023.16
2023-01-17T17:57:34.279Z,98031.78
2023-01-17T18:00:01.111Z,98043.63
2023-01-17T18:02:27.727Z,98035.16
2023-01-17T18:04:54.256Z,98031.72
2023-01-17T18:07:20.815Z,98052.22
2023-01-17T18:09:47.433Z,98051.28
2023-01-17T18:12:14.403Z,98068.34
2023-01-17T18:14:43.970Z,98071.75
2023-01-17T20:02:45.639Z,98157.72
2023-01-17T20:05:12.498Z,98160.34
2023-01-17T20:07:39.136Z,98160.38
2023-01-17T20:10:09.435Z,98163.00
2023-01-17T20:12:36.129Z,98162.91
2023-01-17T20:15:02.797Z,98172.31
2023-01-17T20:17:29.491Z,98170.66
2023-01-17T20:19:56.027Z,98174.84
2023-01-17T20:22:22.601Z,98166.38
2023-01-17T20:24:49.178Z,98167.19
2023-01-17T20:27:17.505Z,98167.91
2023-01-17T20:29:44.150Z,98165.28
2023-01-17T20:32:10.698Z,98167.66
2023-01-17T20:34:37.244Z,98165.84
2023-01-17T20:37:03.794Z,98177.63
2023-01-17T20:39:30.361Z,98171.63
2023-01-17T20:41:57.630Z,98176.84
2023-01-17T20:44:24.205Z,98186.97
2023-01-17T20:46:51.085Z,98194.59
2023-01-17T20:49:19.554Z,98196.38
2023-01-17T20:51:46.747Z,98200.59
2023-01-17T20:54:15.915Z,98201.53
2023-01-17T20:56:43.350Z,98191.31
2023-01-17T20:59:28.069Z,98211.88
2023-01-17T21:01:54.708Z,98198.38
2023-01-17T21:04:25.815Z,98198.47
2023-01-17T21:06:53.491Z,98200.09
2023-01-17T21:09:21.379Z,98196.63
2023-01-17T21:11:48.746Z,98199.75
2023-01-17T21:14:15.414Z,98201.34
2023-01-17T21:16:42.152Z,98197.06
2023-01-17T21:19:12.088Z,98190.19
2023-01-17T21:21:38.926Z,98182.41
2023-01-17T21:24:05.601Z,98177.19
2023-01-17T21:26:32.175Z,98178.00
2023-01-17T21:29:00.392Z,98172.78
2023-01-17T21:31:29.894Z,98175.28
2023-01-17T21:34:02.550Z,98177.06
2023-01-17T21:36:32.674Z,98182.16
2023-01-17T21:39:04.235Z,98180.44
2023-01-17T21:41:33.588Z,98173.72
2023-01-17T21:44:02.683Z,98180.47
2023-01-17T21:46:30.054Z,98182.22
2023-01-17T21:48:57.625Z,98175.41
2023-01-17T21:51:45.001Z,98173.78
2023-01-17T21:54:11.591Z,98168.63
2023-01-17T21:56:56.712Z,98163.56
